Time;durP1;ratioP1;P1;durP2;ratioP2;P2;SDS_P1;SDS_P2;PMS_P1;PMS_P2;Temp;Humidity;BMP_temperature;BMP_pressure;BME280_temperature;BME280_humidity;BME280_pressure;Samples;Min_cycle;Max_cycle;Signal;HPM_P1;HPM_P2
2022/02/05 00:01:56;;;;;;;1.77;1.02;;;7.10;67.10;;;;;;5046826;28;20025;-77
2022/02/05 00:04:23;;;;;;;2.72;1.05;;;7.10;67.00;;;;;;5030989;28;20029;-78
2022/02/05 00:06:53;;;;;;;3.78;1.10;;;7.10;67.00;;;;;;5048808;28;20056;-78
2022/02/05 00:09:37;;;;;;;1.67;1.02;;;7.10;67.10;;;;;;5031233;28;20179;-77
2022/02/05 00:12:27;;;;;;;1.75;1.27;;;7.10;67.00;;;;;;5048208;28;20495;-77
2022/02/05 00:15:19;;;;;;;3.45;1.10;;;7.10;67.00;;;;;;5051099;28;20037;-78
2022/02/05 00:42:55;;;;;;;3.90;1.17;;;6.90;66.80;;;;;;5064102;28;20029;-76
2022/02/05 00:45:06;;;;;;;1.85;1.10;;;6.90;66.90;;;;;;5052803;28;20117;-76
2022/02/05 00:47:33;;;;;;;2.50;1.05;;;6.90;66.80;;;;;;5048119;28;20048;-76
2022/02/05 00:50:01;;;;;;;2.70;0.80;;;6.90;66.90;;;;;;5052295;28;20104;-76
2022/02/05 00:52:28;;;;;;;4.15;1.45;;;6.80;66.70;;;;;;5053952;28;20401;-76
2022/02/05 00:55:05;;;;;;;3.75;1.05;;;6.80;66.70;;;;;;5055055;28;20080;-77
2022/02/05 00:57:44;;;;;;;3.70;1.15;;;6.80;66.80;;;;;;5034010;28;20043;-76
2022/02/05 01:00:13;;;;;;;5.10;1.33;;;6.80;66.80;;;;;;5051254;28;20098;-75
2022/02/05 01:02:39;;;;;;;2.45;1.17;;;6.70;67.10;;;;;;5050565;28;20032;-76
2022/02/05 01:05:05;;;;;;;3.03;1.25;;;6.70;66.60;;;;;;5050239;28;20021;-76
2022/02/05 01:07:31;;;;;;;3.90;0.98;;;6.70;66.70;;;;;;5049711;28;20056;-76
2022/02/05 01:09:57;;;;;;;3.13;1.58;;;6.70;66.70;;;;;;5049153;28;20127;-77
2022/02/05 01:12:26;;;;;;;4.70;1.30;;;6.70;66.70;;;;;;5049091;28;20155;-78
2022/02/05 01:14:55;;;;;;;3.33;1.75;;;6.70;66.70;;;;;;5049175;28;20036;-78
2022/02/05 01:17:31;;;;;;;3.15;1.20;;;6.70;66.70;;;;;;5048584;28;20036;-77
2022/02/05 01:20:27;;;;;;;2.75;0.98;;;6.60;66.60;;;;;;5048974;28;20033;-77
2022/02/05 01:22:51;;;;;;;3.13;1.20;;;6.60;66.60;;;;;;5048754;28;20074;-76
2022/02/05 01:25:22;;;;;;;1.60;1.05;;;6.60;66.60;;;;;;5048113;28;20044;-78
2022/02/05 01:27:54;;;;;;;6.47;1.50;;;6.60;66.60;;;;;;5049190;28;20054;-79
2022/02/05 01:30:34;;;;;;;4.03;1.60;;;6.50;66.50;;;;;;5030822;28;20072;-79
2022/02/05 01:33:21;;;;;;;2.05;1.48;;;6.50;66.60;;;;;;5049293;28;20029;-80
2022/02/05 01:50:29;;;;;;;3.17;1.45;;;6.20;66.20;;;;;;5048031;28;20519;-79
2022/02/05 01:52:30;;;;;;;2.33;1.42;;;6.20;66.30;;;;;;5030884;28;20029;-78
2022/02/05 01:55:29;;;;;;;5.85;1.60;;;6.10;66.20;;;;;;5048875;28;20531;-77
2022/02/05 02:11:43;;;;;;;3.08;1.70;;;5.90;66.00;;;;;;5047804;28;20510;-77
2022/02/05 02:19:22;;;;;;;3.83;1.85;;;5.80;65.90;;;;;;5047736;28;20028;-78
2022/02/05 02:22:01;;;;;;;5.35;1.80;;;5.80;65.90;;;;;;5030185;28;20101;-76
2022/02/05 02:25:22;;;;;;;4.20;2.00;;;5.80;66.00;;;;;;5048062;28;20071;-79
2022/02/05 02:27:31;;;;;;;5.32;2.28;;;5.70;65.80;;;;;;5013507;28;20488;-78
2022/02/05 02:30:10;;;;;;;;;;;5.70;65.80;;;;;;5046721;28;20044;-78
2022/02/05 02:32:43;;;;;;;6.40;1.92;;;5.70;65.90;;;;;;5047768;28;19913;-79
2022/02/05 02:35:15;;;;;;;4.05;1.90;;;5.60;65.70;;;;;;5030140;28;20025;-79
2022/02/05 02:37:53;;;;;;;3.20;2.20;;;5.60;65.70;;;;;;5047368;28;20028;-80
2022/02/05 02:40:27;;;;;;;7.50;3.35;;;5.50;65.60;;;;;;5032137;28;20024;-79
2022/02/05 02:43:00;;;;;;;5.53;2.08;;;5.50;65.60;;;;;;5032547;28;20455;-79
2022/02/05 02:45:26;;;;;;;2.85;1.88;;;5.50;65.70;;;;;;5032008;28;20029;-79
2022/02/05 02:47:52;;;;;;;4.60;2.30;;;5.50;65.70;;;;;;5052237;28;20037;-78
2022/02/05 02:58:24;;;;;;;4.55;2.45;;;5.40;65.60;;;;;;5050745;28;20630;-77
2022/02/05 03:00:55;;;;;;;5.30;2.10;;;5.30;65.50;;;;;;5032771;28;20075;-78
2022/02/05 03:03:22;;;;;;;7.78;2.50;;;5.30;65.50;;;;;;5050451;28;20039;-78
2022/02/05 03:05:48;;;;;;;6.95;2.13;;;5.30;65.50;;;;;;5032666;28;20079;-78
2022/02/05 03:08:14;;;;;;;6.15;2.50;;;5.20;65.30;;;;;;5050119;28;20055;-76
2022/02/05 03:10:40;;;;;;;5.93;2.15;;;5.20;65.30;;;;;;5032174;28;20125;-78
2022/02/05 03:13:06;;;;;;;4.78;2.28;;;5.20;65.40;;;;;;5050616;28;20444;-77
2022/02/05 03:15:38;;;;;;;4.90;2.38;;;5.10;65.30;;;;;;5015692;28;20098;-79
2022/02/05 03:18:09;;;;;;;3.63;2.40;;;5.10;65.30;;;;;;5032394;28;20025;-78
2022/02/05 03:20:35;;;;;;;3.58;2.67;;;5.10;65.30;;;;;;5048312;28;20474;-79
2022/02/05 03:23:03;;;;;;;4.32;2.40;;;5.10;65.30;;;;;;5042596;28;20048;-78
2022/02/05 03:25:31;;;;;;;6.22;2.35;;;5.10;65.30;;;;;;5012406;28;20067;-79
2022/02/05 03:27:58;;;;;;;4.43;2.15;;;5.10;65.30;;;;;;5012787;28;20099;-79
2022/02/05 03:30:25;;;;;;;4.55;2.30;;;5.00;65.10;;;;;;5030256;28;20132;-76
2022/02/05 03:32:51;;;;;;;6.05;2.40;;;5.00;65.10;;;;;;5030197;28;20403;-79
2022/02/05 03:35:18;;;;;;;7.15;2.63;;;5.00;65.10;;;;;;5030196;28;20392;-81
2022/02/05 03:37:45;;;;;;;7.38;2.67;;;4.90;65.60;;;;;;5033117;28;20052;-80
2022/02/05 03:40:11;;;;;;;6.50;2.30;;;4.90;65.10;;;;;;5041497;28;20029;-78
2022/02/05 03:42:38;;;;;;;7.15;2.22;;;4.90;65.10;;;;;;5050432;28;20021;-79
2022/02/05 03:45:05;;;;;;;4.95;2.38;;;4.90;65.10;;;;;;5032447;28;20036;-78
2022/02/05 03:47:33;;;;;;;6.40;2.50;;;4.90;65.10;;;;;;5032043;28;20476;-79
2022/02/05 03:49:59;;;;;;;5.22;2.60;;;4.90;65.10;;;;;;5053570;28;20047;-78
2022/02/05 03:52:25;;;;;;;7.22;2.47;;;4.90;65.10;;;;;;5053976;28;20438;-79
2022/02/05 03:54:51;;;;;;;4.75;2.22;;;4.90;65.10;;;;;;5054134;28;20036;-78
2022/02/05 03:57:17;;;;;;;5.25;2.35;;;4.90;65.10;;;;;;5053827;28;20021;-78
2022/02/05 03:59:43;;;;;;;6.50;2.10;;;4.80;64.90;;;;;;5053431;28;20039;-76
2022/02/05 04:02:09;;;;;;;5.25;2.45;;;4.80;64.90;;;;;;5053704;28;20082;-78
2022/02/05 04:04:35;;;;;;;4.85;2.15;;;4.80;65.00;;;;;;5053519;28;20025;-76
2022/02/05 04:07:03;;;;;;;6.50;2.42;;;4.80;65.00;;;;;;5019197;28;20584;-78
2022/02/05 04:09:41;;;;;;;5.13;2.20;;;4.80;65.00;;;;;;5035694;28;20052;-79
2022/02/05 04:17:30;;;;;;;6.82;2.45;;;4.70;64.90;;;;;;5053130;28;20040;-79
2022/02/05 04:19:56;;;;;;;5.10;2.30;;;4.80;65.10;;;;;;5035535;28;20044;-79
2022/02/05 04:22:22;;;;;;;6.05;1.98;;;4.80;65.10;;;;;;5052308;28;20044;-79
2022/02/05 04:24:48;;;;;;;4.40;2.00;;;4.80;65.10;;;;;;5053490;28;20420;-79
2022/02/05 04:27:14;;;;;;;5.10;2.22;;;4.80;65.10;;;;;;5052983;28;20104;-79
2022/02/05 04:29:41;;;;;;;3.53;2.10;;;4.80;65.00;;;;;;5052779;28;20060;-79
2022/02/05 04:32:07;;;;;;;9.70;2.42;;;4.80;65.00;;;;;;5053161;28;20072;-79
2022/02/05 04:34:33;;;;;;;5.13;2.55;;;4.80;65.00;;;;;;5053735;28;20055;-79
2022/02/05 04:37:02;;;;;;;5.90;2.45;;;4.80;65.00;;;;;;5036116;28;20060;-81
2022/02/05 04:39:29;;;;;;;3.83;2.17;;;4.90;65.20;;;;;;5053489;28;20033;-81
2022/02/05 04:42:04;;;;;;;5.95;1.80;;;4.90;65.30;;;;;;5035446;28;20032;-82
2022/02/05 04:47:38;;;;;;;5.22;2.15;;;4.90;65.20;;;;;;5053080;28;20033;-79
2022/02/05 04:58:04;;;;;;;5.00;1.60;;;5.00;65.20;;;;;;5034956;28;20021;-81
2022/02/05 05:06:03;;;;;;;4.13;2.08;;;5.10;65.30;;;;;;5055143;28;20042;-78
2022/02/05 05:21:24;;;;;;;6.57;2.15;;;5.20;65.30;;;;;;5032426;28;20037;-80
2022/02/05 05:23:50;;;;;;;6.03;2.05;;;5.20;65.30;;;;;;5032381;28;20079;-80
2022/02/05 05:26:16;;;;;;;5.30;1.65;;;5.30;65.40;;;;;;5032610;28;20040;-83
2022/02/05 05:28:42;;;;;;;4.20;2.17;;;5.30;65.40;;;;;;5032671;28;20033;-82
2022/02/05 05:31:08;;;;;;;8.82;2.05;;;5.30;65.40;;;;;;5014565;28;20120;-83
2022/02/05 05:33:34;;;;;;;6.55;1.85;;;5.30;65.30;;;;;;5014433;28;20029;-82
2022/02/05 05:36:00;;;;;;;9.07;1.67;;;5.40;65.50;;;;;;5030940;28;20159;-82
2022/02/05 05:38:26;;;;;;;5.47;1.70;;;5.40;65.50;;;;;;5032221;28;20041;-79
2022/02/05 05:40:52;;;;;;;7.00;1.95;;;5.40;65.50;;;;;;5014350;28;20033;-80
2022/02/05 05:43:28;;;;;;;7.30;1.77;;;5.40;65.40;;;;;;5032031;28;20032;-80
2022/02/05 05:46:14;;;;;;;4.47;1.90;;;5.40;65.40;;;;;;5031846;28;20550;-81
2022/02/05 05:51:18;;;;;;;4.05;1.40;;;5.40;65.30;;;;;;5008680;28;20037;-79
2022/02/05 05:53:44;;;;;;;4.05;1.63;;;5.40;65.30;;;;;;4990627;28;20030;-79
2022/02/05 05:56:11;;;;;;;5.97;2.00;;;5.40;65.30;;;;;;5007160;28;20388;-79
2022/02/05 05:58:38;;;;;;;5.35;1.90;;;5.40;65.30;;;;;;5008259;28;20125;-78
2022/02/05 06:01:04;;;;;;;6.30;1.50;;;5.40;65.30;;;;;;5008760;28;20030;-78
2022/02/05 06:03:33;;;;;;;5.43;1.33;;;5.50;65.60;;;;;;4990948;28;20026;-79
2022/02/05 06:05:59;;;;;;;3.90;1.63;;;5.40;65.30;;;;;;5008795;28;20105;-79
2022/02/05 06:08:25;;;;;;;4.93;1.70;;;5.50;65.60;;;;;;5046014;28;20571;-79
2022/02/05 06:10:51;;;;;;;6.07;1.83;;;5.50;65.50;;;;;;5029970;28;20186;-79
2022/02/05 06:13:17;;;;;;;5.70;2.25;;;5.50;65.50;;;;;;5029969;28;20464;-79
2022/02/05 06:15:44;;;;;;;2.65;1.38;;;5.50;65.50;;;;;;5030058;28;20043;-77
2022/02/05 06:18:10;;;;;;;6.18;1.95;;;5.50;65.50;;;;;;5029637;28;20182;-79
2022/02/05 06:20:37;;;;;;;3.50;1.42;;;5.50;65.50;;;;;;5029942;28;20404;-79
2022/02/05 06:23:03;;;;;;;7.43;2.80;;;5.50;65.40;;;;;;5047558;28;20025;-78
2022/02/05 06:25:31;;;;;;;5.15;1.50;;;5.50;65.40;;;;;;5047362;28;20381;-78
2022/02/05 06:27:57;;;;;;;6.70;1.55;;;5.50;65.40;;;;;;5027990;28;20052;-78
2022/02/05 06:30:24;;;;;;;7.07;1.83;;;5.50;65.40;;;;;;5027159;28;20136;-78
2022/02/05 06:32:50;;;;;;;4.63;2.08;;;5.60;65.60;;;;;;5046400;28;20082;-79
2022/02/05 06:35:16;;;;;;;7.82;2.13;;;5.60;65.60;;;;;;5012532;28;20037;-79
2022/02/05 06:37:42;;;;;;;6.32;1.63;;;5.60;65.60;;;;;;5047107;28;20033;-78
2022/02/05 06:40:09;;;;;;;5.88;1.90;;;5.60;65.50;;;;;;5047686;28;20358;-78
2022/02/05 06:42:36;;;;;;;5.88;1.92;;;5.70;65.70;;;;;;5028698;28;20025;-78
2022/02/05 06:45:03;;;;;;;8.77;1.95;;;5.70;65.60;;;;;;5027681;28;20484;-77
2022/02/05 06:47:29;;;;;;;7.70;1.33;;;5.80;65.80;;;;;;5045620;28;20505;-78
2022/02/05 06:49:57;;;;;;;3.53;1.20;;;5.80;65.70;;;;;;5045936;28;20500;-77
2022/02/05 06:52:23;;;;;;;3.70;1.60;;;5.80;65.60;;;;;;5045328;28;20511;-77
2022/02/05 06:54:49;;;;;;;5.82;1.52;;;5.90;65.80;;;;;;5045556;28;20107;-77
2022/02/05 06:57:15;;;;;;;2.70;1.20;;;5.90;65.70;;;;;;5044667;28;20115;-77
2022/02/05 06:59:41;;;;;;;5.50;1.10;;;6.00;65.80;;;;;;5028337;28;20360;-77
2022/02/05 07:02:08;;;;;;;5.95;2.08;;;5.90;65.60;;;;;;5028662;28;20961;-78
2022/02/05 07:04:35;;;;;;;4.57;1.40;;;6.00;65.80;;;;;;5027877;28;20123;-78
2022/02/05 07:07:02;;;;;;;7.20;1.50;;;6.00;65.70;;;;;;5046720;28;20048;-78
2022/02/05 07:09:28;;;;;;;5.72;1.75;;;6.00;65.70;;;;;;5028671;28;20041;-78
2022/02/05 07:11:57;;;;;;;4.72;1.15;;;6.00;65.80;;;;;;5029665;28;20028;-77
2022/02/05 07:14:28;;;;;;;5.50;1.63;;;6.00;65.90;;;;;;5029047;28;20388;-78
2022/02/05 07:17:10;;;;;;;6.07;1.55;;;6.00;65.90;;;;;;5029318;28;20044;-87
2022/02/05 07:20:17;;;;;;;7.45;1.30;;;6.10;66.00;;;;;;5029771;28;20488;-80
2022/02/05 07:22:35;;;;;;;6.65;1.90;;;6.10;66.00;;;;;;5025449;28;20029;-83
2022/02/05 07:29:13;;;;;;;5.60;1.83;;;6.10;65.90;;;;;;5013903;28;20033;-80
2022/02/05 07:30:32;;;;;;;3.90;1.20;;;6.10;65.90;;;;;;5015857;28;20096;-79
2022/02/05 07:32:58;;;;;;;5.93;1.58;;;6.10;65.90;;;;;;5033715;28;20033;-80
2022/02/05 07:35:26;;;;;;;5.05;1.50;;;6.10;65.90;;;;;;5062794;28;20414;-79
2022/02/05 07:37:55;;;;;;;8.20;1.40;;;6.10;66.00;;;;;;5065662;28;20029;-79
2022/02/05 07:40:21;;;;;;;4.72;1.48;;;6.00;65.80;;;;;;5030773;28;20407;-79
2022/02/05 07:42:48;;;;;;;6.93;1.75;;;6.00;65.80;;;;;;5031250;28;20037;-78
2022/02/05 07:45:16;;;;;;;4.75;1.02;;;6.00;65.80;;;;;;5013870;28;20018;-79
2022/02/05 07:47:42;;;;;;;9.77;2.45;;;6.00;65.90;;;;;;5012982;28;20143;-77
2022/02/05 07:50:09;;;;;;;2.67;1.30;;;6.00;65.90;;;;;;5030560;28;20033;-77
2022/02/05 07:52:36;;;;;;;4.10;1.88;;;5.90;65.80;;;;;;5030341;28;20508;-77
2022/02/05 07:55:03;;;;;;;4.18;1.10;;;6.00;65.90;;;;;;5029160;28;20225;-77
2022/02/05 07:57:30;;;;;;;5.13;1.55;;;5.90;65.80;;;;;;5030415;28;20030;-77
2022/02/05 07:59:56;;;;;;;8.40;2.05;;;5.90;65.80;;;;;;5012680;28;20048;-77
2022/02/05 08:02:22;;;;;;;5.70;1.50;;;5.90;65.90;;;;;;5029509;28;20026;-78
2022/02/05 08:04:48;;;;;;;8.05;1.63;;;5.90;65.90;;;;;;5030477;28;20033;-76
2022/02/05 08:07:14;;;;;;;5.03;1.48;;;5.90;65.90;;;;;;5030339;28;20528;-79
2022/02/05 08:10:02;;;;;;;4.22;1.52;;;5.90;65.90;;;;;;5048582;28;20033;-80
2022/02/05 08:12:30;;;;;;;3.03;1.50;;;5.90;65.90;;;;;;5049987;28;20090;-79
2022/02/05 08:14:58;;;;;;;5.03;3.08;;;5.90;65.90;;;;;;5046468;28;20100;-80
2022/02/05 08:17:28;;;;;;;6.18;1.60;;;5.90;65.90;;;;;;5040731;28;20161;-82
2022/02/05 08:19:54;;;;;;;5.60;1.42;;;5.90;65.90;;;;;;5032001;28;20040;-80
2022/02/05 08:22:20;;;;;;;7.93;2.70;;;5.90;65.80;;;;;;5021959;28;20154;-80
2022/02/05 08:24:47;;;;;;;5.72;1.83;;;5.80;66.20;;;;;;5011694;28;20026;-77
2022/02/05 08:27:13;;;;;;;6.35;1.60;;;5.90;65.90;;;;;;5029933;28;20539;-76
2022/02/05 08:29:46;;;;;;;8.13;2.03;;;5.80;65.70;;;;;;5028078;28;20048;-77
2022/02/05 08:32:12;;;;;;;4.95;1.55;;;5.90;65.90;;;;;;5011815;28;20021;-75
2022/02/05 08:34:38;;;;;;;8.57;2.20;;;5.90;65.90;;;;;;5011391;28;20514;-77
2022/02/05 08:37:05;;;;;;;3.55;1.30;;;5.90;65.90;;;;;;5029713;28;20477;-77
2022/02/05 08:39:31;;;;;;;8.20;1.80;;;6.00;65.90;;;;;;5031120;28;20033;-77
2022/02/05 08:41:57;;;;;;;5.40;1.75;;;6.00;65.80;;;;;;5035562;28;20039;-80
2022/02/05 08:44:23;;;;;;;8.15;1.50;;;6.10;65.90;;;;;;5037667;28;20029;-78
2022/02/05 08:46:49;;;;;;;6.20;1.55;;;6.10;65.90;;;;;;5014476;28;20123;-77
2022/02/05 08:49:15;;;;;;;5.68;1.30;;;6.20;66.00;;;;;;5042265;28;20124;-78
2022/02/05 08:51:41;;;;;;;6.30;1.75;;;6.20;65.90;;;;;;5026640;28;20576;-77
2022/02/05 08:54:07;;;;;;;8.40;1.90;;;6.30;66.00;;;;;;5014532;28;20059;-77
2022/02/05 08:56:34;;;;;;;4.35;1.23;;;6.30;65.90;;;;;;5037111;28;20026;-77
2022/02/05 08:59:01;;;;;;;5.82;1.52;;;6.40;66.00;;;;;;5027625;28;20531;-76
2022/02/05 09:01:32;;;;;;;2.85;1.45;;;6.40;65.90;;;;;;5030037;28;20044;-77
2022/02/05 09:04:18;;;;;;;5.28;1.42;;;6.40;65.80;;;;;;5049202;28;20056;-75
2022/02/05 09:06:46;;;;;;;10.38;1.77;;;6.50;66.30;;;;;;5031067;28;20041;-76
2022/02/05 09:14:38;;;;;;;6.60;1.60;;;6.70;66.70;;;;;;5045962;28;20116;-77
2022/02/05 09:17:05;;;;;;;5.40;1.60;;;6.70;66.70;;;;;;5047141;28;20033;-77
2022/02/05 09:19:33;;;;;;;4.82;1.52;;;6.70;66.70;;;;;;5016174;28;20501;-77
2022/02/05 09:22:00;;;;;;;5.85;1.80;;;6.70;66.70;;;;;;5027015;28;20073;-77
2022/02/05 09:24:26;;;;;;;6.75;2.00;;;6.70;66.80;;;;;;4994383;28;20030;-77
2022/02/05 09:27:02;;;;;;;8.25;2.00;;;6.80;67.00;;;;;;5029711;28;20073;-77
2022/02/05 09:29:32;;;;;;;9.90;1.50;;;6.80;67.00;;;;;;5011015;28;20049;-77
2022/02/05 09:31:58;;;;;;;4.57;1.30;;;6.80;67.00;;;;;;5010816;28;20034;-77
2022/02/05 09:34:25;;;;;;;5.72;1.88;;;6.80;67.00;;;;;;5011092;28;20045;-77
2022/02/05 09:36:51;;;;;;;3.67;1.35;;;6.90;67.10;;;;;;5028463;28;20084;-78
2022/02/05 09:39:17;;;;;;;4.07;1.20;;;6.90;67.10;;;;;;5010588;28;20033;-77
2022/02/05 09:41:44;;;;;;;5.97;1.90;;;7.00;67.20;;;;;;5028802;28;20036;-77
2022/02/05 09:44:11;;;;;;;8.32;1.83;;;7.10;67.30;;;;;;5011191;28;20045;-78
2022/02/05 09:46:37;;;;;;;6.88;1.58;;;7.10;67.20;;;;;;5027001;28;20084;-78
2022/02/05 09:49:04;;;;;;;10.88;1.40;;;7.20;67.30;;;;;;5018862;28;20090;-78
2022/02/05 09:51:34;;;;;;;3.78;1.10;;;7.30;67.30;;;;;;5047251;28;20027;-77
2022/02/05 09:54:02;;;;;;;5.28;1.15;;;7.30;67.20;;;;;;5047990;28;20562;-78
2022/02/05 09:56:33;;;;;;;4.13;1.15;;;7.40;67.30;;;;;;5048562;28;20115;-78
2022/02/05 09:59:00;;;;;;;8.48;1.77;;;7.50;67.30;;;;;;5031342;28;20025;-78
2022/02/05 10:01:30;;;;;;;4.60;1.67;;;7.50;67.30;;;;;;5032045;28;20032;-77
2022/02/05 10:03:57;;;;;;;5.00;1.30;;;7.60;67.40;;;;;;5050537;28;20035;-76
2022/02/05 10:06:32;;;;;;;6.75;1.77;;;7.70;67.50;;;;;;5045714;28;20042;-76
2022/02/05 10:09:01;;;;;;;4.43;1.30;;;7.80;67.50;;;;;;5028474;28;20053;-77
2022/02/05 10:11:31;;;;;;;4.10;1.40;;;7.90;67.60;;;;;;5014372;28;20040;-77
2022/02/05 10:14:25;;;;;;;6.03;1.30;;;8.00;67.70;;;;;;4999526;28;20389;-77
2022/02/05 10:16:57;;;;;;;2.78;1.02;;;8.10;67.70;;;;;;5024163;28;20037;-78
2022/02/05 10:19:43;;;;;;;4.82;1.33;;;8.20;67.70;;;;;;5011857;28;20036;-78
2022/02/05 10:22:09;;;;;;;3.70;1.30;;;8.30;67.60;;;;;;5007760;28;20068;-77
2022/02/05 10:25:06;;;;;;;4.18;1.15;;;8.40;67.50;;;;;;5007313;28;20065;-77
2022/02/05 10:27:40;;;;;;;8.07;1.77;;;8.60;67.60;;;;;;4989361;28;20197;-78
2022/02/05 10:30:14;;;;;;;4.30;1.50;;;8.80;67.70;;;;;;5007345;28;20046;-77
2022/02/05 10:32:48;;;;;;;9.35;1.25;;;8.90;67.60;;;;;;5007124;28;20030;-77
2022/02/05 10:37:56;;;;;;;6.00;2.10;;;9.20;67.70;;;;;;5007621;28;20499;-77
2022/02/05 10:40:42;;;;;;;7.15;2.58;;;9.30;67.60;;;;;;5007996;28;20033;-77
2022/02/05 10:43:09;;;;;;;5.38;1.08;;;9.50;67.70;;;;;;4990972;28;20088;-77
2022/02/05 10:45:43;;;;;;;5.40;1.38;;;9.60;67.70;;;;;;5008278;28;20025;-77
2022/02/05 10:48:11;;;;;;;2.08;0.80;;;9.70;67.60;;;;;;5008388;28;20041;-77
2022/02/05 10:50:37;;;;;;;5.75;1.75;;;9.80;67.60;;;;;;5007812;28;20101;-78
2022/02/05 10:53:16;;;;;;;2.90;1.10;;;9.90;67.70;;;;;;5013365;28;20030;-76
2022/02/05 10:58:23;;;;;;;4.50;1.05;;;10.00;67.70;;;;;;5017434;28;20026;-77
2022/02/05 11:06:00;;;;;;;3.22;1.20;;;10.30;67.80;;;;;;5009208;28;20037;-75
2022/02/05 11:08:27;;;;;;;4.70;1.52;;;10.40;67.80;;;;;;5028535;28;20470;-76
2022/02/05 11:19:13;;;;;;;5.72;1.17;;;10.80;68.00;;;;;;5032955;28;20543;-77
2022/02/05 11:21:40;;;;;;;5.50;2.10;;;10.90;67.80;;;;;;5026847;28;20041;-76
2022/02/05 11:24:07;;;;;;;3.38;1.25;;;11.00;67.80;;;;;;5024958;28;20112;-77
2022/02/05 11:26:34;;;;;;;8.05;2.28;;;11.00;67.60;;;;;;5009190;28;20040;-77
2022/02/05 11:29:28;;;;;;;3.40;0.80;;;11.10;67.70;;;;;;5017079;28;20076;-77
2022/02/05 11:32:13;;;;;;;;;;;11.20;67.70;;;;;;5026148;28;20037;-76
2022/02/05 11:34:48;;;;;;;5.40;1.40;;;11.30;67.80;;;;;;5026371;28;19909;-76
2022/02/05 11:37:15;;;;;;;6.10;2.13;;;11.30;67.60;;;;;;5028828;28;20025;-77
2022/02/05 11:39:50;;;;;;;5.05;1.80;;;11.40;67.60;;;;;;5042275;28;20032;-76
2022/02/05 11:42:28;;;;;;;6.25;1.38;;;11.50;67.70;;;;;;5028428;28;20492;-76
2022/02/05 11:44:59;;;;;;;1.70;0.88;;;11.70;67.80;;;;;;5046645;28;20063;-77
2022/02/05 11:47:28;;;;;;;7.93;1.27;;;11.80;67.70;;;;;;5046497;28;20036;-76
2022/02/05 11:49:57;;;;;;;5.82;1.48;;;11.90;67.60;;;;;;5027150;28;20610;-77
2022/02/05 11:52:35;;;;;;;3.38;0.90;;;12.00;67.60;;;;;;5008942;28;20049;-77
2022/02/05 11:55:15;;;;;;;3.75;1.42;;;12.10;67.50;;;;;;5026506;28;20029;-77
2022/02/05 11:57:45;;;;;;;5.15;2.50;;;12.20;67.50;;;;;;5009159;28;20021;-76
2022/02/05 12:00:23;;;;;;;5.25;1.00;;;12.30;67.40;;;;;;5007642;28;20037;-77
2022/02/05 12:05:25;;;;;;;7.18;1.20;;;12.50;67.20;;;;;;5031351;28;20029;-76
2022/02/05 12:08:08;;;;;;;5.37;1.10;;;12.60;67.20;;;;;;5042587;28;20053;-77
2022/02/05 12:10:37;;;;;;;1.80;0.80;;;12.70;67.20;;;;;;5041907;28;20037;-78
2022/02/05 12:13:23;;;;;;;4.75;0.95;;;12.70;67.00;;;;;;5032120;28;20033;-76
2022/02/05 12:16:11;;;;;;;3.40;0.80;;;12.70;66.80;;;;;;5030636;28;20033;-79
2022/02/05 12:19:10;;;;;;;4.10;1.17;;;12.80;66.90;;;;;;5040085;28;20195;-78
2022/02/05 12:21:52;;;;;;;3.20;0.90;;;12.80;66.90;;;;;;5029400;28;20033;-80
2022/02/05 12:24:35;;;;;;;6.07;1.27;;;12.80;66.90;;;;;;5031980;28;20029;-80
2022/02/05 12:27:23;;;;;;;8.38;1.00;;;12.80;66.90;;;;;;5043093;28;20058;-79
2022/02/05 12:29:49;;;;;;;4.95;2.20;;;12.80;67.00;;;;;;5022640;28;20156;-77
2022/02/05 12:32:16;;;;;;;4.25;1.55;;;12.80;67.10;;;;;;5042422;28;20524;-79
2022/02/05 12:34:42;;;;;;;3.97;1.27;;;12.80;67.10;;;;;;5044050;28;20029;-80
2022/02/05 12:37:08;;;;;;;3.10;1.20;;;12.90;67.10;;;;;;5015774;28;20483;-76
2022/02/05 12:39:35;;;;;;;3.70;1.23;;;13.00;67.20;;;;;;5028718;28;20042;-77
2022/02/05 12:42:12;;;;;;;3.97;1.20;;;13.00;67.10;;;;;;5030338;28;20025;-77
2022/02/05 12:44:39;;;;;;;5.60;0.98;;;13.00;67.00;;;;;;4996098;28;20029;-79
2022/02/05 12:47:15;;;;;;;4.10;0.95;;;13.10;67.10;;;;;;5036030;28;20095;-76
2022/02/05 12:52:09;;;;;;;3.03;1.20;;;13.20;67.00;;;;;;5039434;28;20026;-77
2022/02/05 12:54:43;;;;;;;3.88;1.65;;;13.30;67.10;;;;;;5039102;28;20037;-77
2022/02/05 12:57:17;;;;;;;5.95;1.45;;;13.40;67.10;;;;;;5040643;28;20025;-78
2022/02/05 12:59:43;;;;;;;4.07;0.80;;;13.40;66.90;;;;;;5034161;28;20109;-76
2022/02/05 13:02:11;;;;;;;9.05;1.50;;;13.50;67.00;;;;;;5050988;28;20112;-76
2022/02/05 13:04:41;;;;;;;8.60;1.55;;;13.50;66.80;;;;;;5045281;28;20025;-77
2022/02/05 13:07:10;;;;;;;8.68;2.30;;;13.60;66.80;;;;;;5043305;28;20391;-77
2022/02/05 13:09:55;;;;;;;4.63;1.70;;;13.60;66.70;;;;;;5024498;28;20043;-77
2022/02/05 13:12:28;;;;;;;4.78;1.90;;;13.50;66.50;;;;;;5017872;28;20041;-77
2022/02/05 13:15:21;;;;;;;4.55;1.38;;;13.50;66.60;;;;;;5031144;28;20052;-77
2022/02/05 13:33:41;;;;;;;9.15;2.20;;;13.70;67.00;;;;;;5029920;28;20043;-77
2022/02/05 13:39:27;;;;;;;5.45;1.73;;;13.80;67.10;;;;;;5040095;28;20029;-75
2022/02/05 13:41:57;;;;;;;6.55;2.00;;;13.90;67.20;;;;;;5014019;28;20425;-75
2022/02/05 13:44:28;;;;;;;7.63;1.77;;;14.00;67.20;;;;;;5036120;28;20034;-76
2022/02/05 13:47:07;;;;;;;7.32;2.75;;;14.00;67.10;;;;;;5022219;28;20033;-76
2022/02/05 13:49:34;;;;;;;5.68;2.45;;;14.00;67.10;;;;;;5028168;28;20080;-76
2022/02/05 13:52:11;;;;;;;7.20;2.25;;;14.00;67.10;;;;;;5028214;28;20455;-89
2022/02/05 13:54:41;;;;;;;9.40;2.15;;;14.20;67.30;;;;;;5012234;28;20048;-88
2022/02/05 13:57:10;;;;;;;10.30;2.25;;;14.20;67.10;;;;;;5029973;28;20044;-84
2022/02/05 13:59:36;;;;;;;9.32;2.22;;;14.30;67.10;;;;;;5010778;28;20042;-75
2022/02/05 14:02:19;;;;;;;12.05;2.75;;;14.40;67.00;;;;;;5034213;28;20718;-74
2022/02/05 14:05:13;;;;;;;6.18;1.45;;;14.50;67.00;;;;;;5033553;28;20038;-76
2022/02/05 14:07:47;;;;;;;9.77;2.55;;;14.60;67.10;;;;;;5032646;28;20040;-76
2022/02/05 14:10:23;;;;;;;9.30;2.17;;;14.70;67.00;;;;;;5028765;28;20524;-76
2022/02/05 14:12:54;;;;;;;7.32;2.40;;;14.90;67.10;;;;;;5027899;28;20022;-76
2022/02/05 14:15:23;;;;;;;14.43;3.30;;;14.90;66.80;;;;;;5028018;28;20347;-75
2022/02/05 14:18:05;;;;;;;6.72;1.70;;;14.90;66.60;;;;;;5029326;28;20060;-77
2022/02/05 14:20:37;;;;;;;9.80;3.35;;;15.00;66.50;;;;;;5030177;28;20422;-76
2022/02/05 14:23:10;;;;;;;11.57;2.80;;;15.00;66.50;;;;;;5020446;28;20047;-76
2022/02/05 14:25:48;;;;;;;;;;;15.10;66.50;;;;;;5035170;28;20029;-77
2022/02/05 14:28:25;;;;;;;13.10;3.13;;;15.00;66.40;;;;;;5030915;28;20360;-77
2022/02/05 14:42:23;;;;;;;6.75;2.28;;;14.90;66.20;;;;;;5024097;28;20386;-76
2022/02/05 14:44:50;;;;;;;8.23;2.28;;;14.80;66.10;;;;;;5044574;28;20056;-76
2022/02/05 14:47:17;;;;;;;10.88;3.13;;;14.80;66.20;;;;;;5035263;28;20047;-76
2022/02/05 14:49:43;;;;;;;10.85;2.88;;;14.70;66.00;;;;;;5030376;28;20076;-76
2022/02/05 14:52:14;;;;;;;8.50;2.50;;;14.70;66.00;;;;;;5011482;28;20428;-75
2022/02/05 14:54:42;;;;;;;11.63;3.72;;;14.60;65.90;;;;;;5037203;28;20067;-75
2022/02/05 14:57:10;;;;;;;7.97;2.42;;;14.60;65.90;;;;;;5035793;28;20032;-76
2022/02/05 14:59:36;;;;;;;8.90;2.83;;;14.60;66.00;;;;;;5037757;28;20025;-75
2022/02/05 15:02:02;;;;;;;16.45;4.07;;;14.50;65.80;;;;;;5027257;28;20030;-74
2022/02/05 15:04:29;;;;;;;9.90;2.97;;;14.60;65.90;;;;;;5025854;28;20028;-76
2022/02/05 15:06:55;;;;;;;10.50;2.70;;;14.60;65.80;;;;;;5009825;28;20088;-77
2022/02/05 15:09:21;;;;;;;10.60;3.03;;;14.60;65.70;;;;;;5025890;28;20495;-76
2022/02/05 15:11:47;;;;;;;8.82;2.97;;;14.70;65.80;;;;;;5027472;28;20116;-75
2022/02/05 15:14:13;;;;;;;13.82;3.50;;;14.70;65.80;;;;;;5027175;28;20560;-75
2022/02/05 15:16:39;;;;;;;10.88;3.83;;;14.70;65.70;;;;;;5027420;28;20112;-75
2022/02/05 15:19:06;;;;;;;10.07;3.20;;;14.70;65.60;;;;;;5026902;28;20063;-80
2022/02/05 15:21:35;;;;;;;12.68;3.22;;;14.60;65.40;;;;;;5026839;28;20033;-77
2022/02/05 15:24:03;;;;;;;13.15;4.35;;;14.60;65.40;;;;;;5028338;28;20038;-77
2022/02/05 15:26:32;;;;;;;15.18;4.78;;;14.60;65.40;;;;;;5025802;28;20040;-78
2022/02/05 15:28:59;;;;;;;10.95;3.20;;;14.50;65.10;;;;;;5029242;28;20049;-78
2022/02/05 15:31:26;;;;;;;13.82;3.92;;;14.50;65.10;;;;;;5009352;28;20445;-77
2022/02/05 15:33:56;;;;;;;16.27;4.57;;;14.50;65.20;;;;;;5026921;28;20116;-77
2022/02/05 15:36:28;;;;;;;14.48;2.90;;;14.50;65.10;;;;;;5026594;28;20252;-78
2022/02/05 15:44:05;;;;;;;12.93;2.75;;;14.40;65.10;;;;;;5027827;28;20034;-77
2022/02/05 15:46:32;;;;;;;17.05;4.55;;;14.40;65.10;;;;;;5031248;28;20030;-77
2022/02/05 15:48:58;;;;;;;13.70;3.05;;;14.30;65.00;;;;;;5030429;28;20021;-78
2022/02/05 15:51:29;;;;;;;11.88;2.80;;;14.30;65.00;;;;;;5031543;28;20033;-77
2022/02/05 15:54:00;;;;;;;10.48;3.63;;;14.30;65.10;;;;;;5013108;28;20079;-77
2022/02/05 15:59:05;;;;;;;10.15;2.97;;;14.10;64.80;;;;;;5020292;28;20119;-78
2022/02/05 16:01:31;;;;;;;11.27;2.67;;;14.10;64.90;;;;;;5030673;28;20060;-76
2022/02/05 16:03:57;;;;;;;9.27;2.63;;;14.00;64.80;;;;;;5041529;28;20079;-77